createdAt,value
2023-04-07T00:01:00.915Z,7.40
2023-04-07T00:06:02.629Z,6.95
2023-04-07T00:11:04.282Z,7.90
2023-04-07T00:16:06.269Z,8.25
2023-04-07T00:21:07.924Z,7.90
2023-04-07T00:26:09.572Z,7.70
2023-04-07T00:31:12.352Z,7.37
2023-04-07T00:36:14.033Z,6.70
2023-04-07T00:41:16.014Z,6.50
2023-04-07T00:46:19.766Z,7.07
2023-04-07T00:51:22.612Z,6.53
2023-04-07T00:56:24.259Z,6.50
2023-04-07T01:01:29.719Z,6.67
2023-04-07T01:06:36.658Z,6.27
2023-04-07T01:11:58.052Z,6.10
2023-04-07T01:17:01.250Z,5.77
2023-04-07T01:22:08.843Z,6.33
2023-04-07T01:27:34.128Z,6.23
2023-04-07T01:32:37.143Z,6.20
2023-04-07T01:37:39.449Z,6.00
2023-04-07T01:42:41.655Z,6.10
2023-04-07T01:47:43.815Z,5.60
2023-04-07T01:52:46.298Z,6.13
2023-04-07T01:57:47.965Z,6.27
2023-04-07T02:02:59.520Z,6.20
2023-04-07T02:08:04.189Z,5.90
2023-04-07T02:13:10.077Z,6.33
2023-04-07T02:18:14.006Z,6.20
2023-04-07T02:23:16.424Z,5.87
2023-04-07T02:28:18.210Z,5.87
2023-04-07T02:33:20.600Z,5.90
2023-04-07T02:38:22.216Z,5.73
2023-04-07T02:43:23.820Z,5.73
2023-04-07T02:48:26.362Z,6.00
2023-04-07T02:53:27.976Z,5.60
2023-04-07T02:58:29.630Z,6.10
2023-04-07T03:03:31.685Z,5.87
2023-04-07T03:08:42.715Z,6.20
2023-04-07T03:13:44.370Z,5.93
2023-04-07T03:18:46.227Z,5.40
2023-04-07T03:23:48.546Z,5.60
2023-04-07T03:28:50.332Z,6.10
2023-04-07T03:33:53.318Z,5.67
2023-04-07T03:38:56.694Z,5.00
2023-04-07T03:43:58.458Z,6.30
2023-04-07T03:49:01.297Z,5.80
2023-04-07T03:54:06.695Z,5.57
2023-04-07T03:59:15.033Z,6.17
2023-04-07T04:04:28.561Z,6.10
2023-04-07T04:09:31.445Z,6.63
2023-04-07T04:14:33.977Z,6.20
2023-04-07T04:19:37.861Z,5.53
2023-04-07T04:24:48.389Z,5.97
2023-04-07T04:29:50.031Z,6.10
2023-04-07T04:34:56.701Z,5.80
2023-04-07T04:39:59.551Z,5.97
2023-04-07T04:45:01.426Z,6.30
2023-04-07T04:50:06.683Z,6.03
2023-04-07T04:55:14.407Z,6.50
2023-04-07T05:00:18.022Z,6.37
2023-04-07T05:05:22.152Z,6.50
2023-04-07T05:10:26.413Z,6.77
2023-04-07T05:15:29.632Z,6.00
2023-04-07T05:20:32.043Z,6.80
2023-04-07T05:25:33.746Z,6.27
2023-04-07T05:30:38.861Z,6.20
2023-04-07T05:35:40.851Z,6.83
2023-04-07T05:40:42.907Z,6.37
2023-04-07T05:45:49.683Z,6.80
2023-04-07T05:50:52.019Z,6.67
2023-04-07T05:55:54.897Z,6.93
2023-04-07T06:01:10.142Z,7.10
2023-04-07T06:06:11.996Z,6.63
2023-04-07T06:11:13.820Z,6.53
2023-04-07T06:16:17.385Z,6.70
2023-04-07T06:21:19.974Z,7.10
2023-04-07T06:26:21.935Z,6.83
2023-04-07T06:31:23.629Z,6.77
2023-04-07T06:36:27.715Z,6.40
2023-04-07T06:41:29.355Z,6.57
2023-04-07T06:46:31.102Z,6.70
2023-04-07T06:51:33.114Z,6.77
2023-04-07T06:56:34.764Z,6.43
2023-04-07T07:01:37.792Z,6.63
2023-04-07T07:06:39.680Z,6.33
2023-04-07T07:11:41.386Z,6.50
2023-04-07T07:16:43.027Z,7.30
2023-04-07T07:21:44.936Z,6.22
2023-04-07T07:26:46.595Z,8.90
2023-04-07T07:31:48.300Z,7.13
2023-04-07T07:36:49.924Z,6.63
2023-04-07T07:41:51.934Z,6.13
2023-04-07T07:46:53.604Z,6.40
2023-04-07T07:51:55.261Z,6.13
2023-04-07T07:56:57.435Z,6.20
2023-04-07T08:01:59.106Z,6.85
2023-04-07T08:07:00.705Z,6.57
2023-04-07T08:12:03.608Z,7.28
2023-04-07T08:17:05.459Z,6.90
2023-04-07T08:22:07.147Z,6.70
2023-04-07T08:27:08.774Z,6.72
2023-04-07T08:32:10.744Z,6.85
2023-04-07T08:37:12.405Z,6.88
2023-04-07T08:42:14.515Z,6.88
2023-04-07T08:47:17.753Z,7.00
2023-04-07T08:52:23.041Z,6.45
2023-04-07T08:57:24.741Z,6.65
2023-04-07T09:02:26.749Z,6.88
2023-04-07T09:07:28.599Z,7.60
2023-04-07T09:12:31.429Z,6.95
2023-04-07T09:17:33.088Z,8.25
2023-04-07T09:22:35.929Z,6.55
2023-04-07T09:27:37.916Z,7.10
2023-04-07T09:32:39.695Z,6.38
2023-04-07T09:37:42.501Z,5.35
2023-04-07T09:42:48.339Z,5.35
2023-04-07T09:47:50.066Z,5.05
2023-04-07T09:52:52.527Z,5.28
2023-04-07T09:57:57.622Z,5.22
2023-04-07T10:02:59.666Z,5.20
2023-04-07T10:08:02.631Z,4.95
2023-04-07T10:13:05.797Z,4.88
2023-04-07T10:18:07.595Z,4.30
2023-04-07T10:24:15.802Z,4.50
2023-04-07T10:29:18.190Z,5.32
2023-04-07T10:34:53.362Z,5.32
2023-04-07T10:40:20.020Z,4.40
2023-04-07T10:45:54.182Z,4.50
2023-04-07T10:51:05.083Z,4.55
2023-04-07T10:56:07.102Z,4.25
2023-04-07T11:01:11.859Z,4.55
2023-04-07T11:06:14.369Z,4.82
2023-04-07T11:11:19.567Z,5.40
2023-04-07T11:16:35.733Z,4.80
2023-04-07T11:21:37.426Z,5.30
2023-04-07T11:26:40.574Z,9.85
2023-04-07T11:31:48.366Z,6.25
2023-04-07T11:36:49.981Z,5.20
2023-04-07T11:41:51.635Z,5.47
2023-04-07T11:47:01.131Z,5.00
2023-04-07T11:52:09.324Z,5.32
2023-04-07T11:57:12.860Z,5.50
2023-04-07T12:02:31.709Z,4.88
2023-04-07T12:07:33.661Z,5.55
2023-04-07T12:12:35.282Z,5.88
2023-04-07T12:17:36.897Z,6.10
2023-04-07T12:22:38.565Z,6.63
2023-04-07T12:27:43.622Z,6.40
2023-04-07T12:32:45.668Z,6.68
2023-04-07T12:37:49.610Z,6.30
2023-04-07T12:42:52.057Z,6.25
2023-04-07T12:47:53.753Z,7.00
2023-04-07T12:52:55.506Z,7.07
2023-04-07T12:57:57.127Z,6.55
2023-04-07T13:02:58.954Z,7.43
2023-04-07T13:08:00.766Z,7.13
2023-04-07T13:13:02.430Z,6.70
2023-04-07T13:18:04.192Z,5.93
2023-04-07T13:23:09.673Z,6.40
2023-04-07T13:28:12.217Z,6.38
2023-04-07T13:33:13.812Z,5.85
2023-04-07T13:38:15.701Z,6.28
2023-04-07T13:43:18.987Z,6.47
2023-04-07T13:48:20.867Z,6.28
2023-04-07T13:53:23.220Z,6.28
2023-04-07T13:58:25.225Z,6.60
2023-04-07T14:03:27.833Z,6.45
2023-04-07T14:08:29.697Z,6.50
2023-04-07T14:13:31.496Z,6.00
2023-04-07T14:18:33.274Z,5.82
2023-04-07T14:23:37.566Z,6.05
2023-04-07T14:28:39.837Z,5.70
2023-04-07T14:33:42.799Z,5.22
2023-04-07T14:38:45.538Z,6.30
2023-04-07T14:43:48.413Z,6.03
2023-04-07T14:48:52.491Z,5.68
2023-04-07T14:53:56.247Z,7.07
2023-04-07T14:58:57.965Z,5.72
2023-04-07T15:04:01.034Z,5.90
2023-04-07T15:09:02.760Z,6.53
2023-04-07T15:14:06.549Z,7.03
2023-04-07T15:19:08.181Z,6.95
2023-04-07T15:24:09.816Z,6.22
2023-04-07T15:29:11.445Z,6.25
2023-04-07T15:34:13.982Z,5.95
2023-04-07T15:39:16.778Z,6.85
2023-04-07T15:44:21.591Z,6.95
2023-04-07T15:49:26.049Z,6.88
2023-04-07T15:54:27.876Z,6.30
2023-04-07T15:59:30.962Z,7.72
2023-04-07T16:04:32.833Z,7.60
2023-04-07T16:09:34.579Z,8.07
2023-04-07T16:14:36.406Z,6.78
2023-04-07T16:19:38.144Z,7.97
2023-04-07T16:24:39.837Z,7.38
2023-04-07T16:29:41.513Z,7.93
2023-04-07T16:34:43.127Z,7.47
2023-04-07T16:39:44.719Z,7.47
2023-04-07T16:44:46.458Z,6.88
2023-04-07T16:49:48.042Z,6.28
2023-04-07T16:54:49.964Z,5.97
2023-04-07T16:59:51.566Z,6.00
2023-04-07T17:04:53.745Z,5.75
2023-04-07T17:09:55.352Z,5.15
2023-04-07T17:14:56.962Z,5.63
2023-04-07T17:19:59.676Z,5.60
2023-04-07T17:25:01.286Z,5.82
2023-04-07T17:30:04.000Z,6.40
2023-04-07T17:35:05.964Z,6.53
2023-04-07T17:40:08.319Z,6.15
2023-04-07T17:45:10.742Z,6.47
2023-04-07T17:50:12.367Z,7.07
2023-04-07T17:55:14.150Z,6.80
2023-04-07T18:00:16.066Z,6.88
2023-04-07T18:05:17.681Z,6.93
2023-04-07T18:10:19.387Z,7.38
2023-04-07T18:15:21.106Z,7.82
2023-04-07T18:20:22.940Z,7.47
2023-04-07T18:25:24.630Z,8.73
2023-04-07T18:30:26.420Z,9.90
2023-04-07T18:35:28.585Z,8.55
2023-04-07T18:40:32.717Z,8.13
2023-04-07T18:45:36.796Z,8.82
2023-04-07T18:50:38.635Z,8.90
2023-04-07T18:55:40.337Z,9.85
2023-04-07T19:00:42.508Z,9.85
2023-04-07T19:05:47.212Z,9.20
2023-04-07T19:10:51.068Z,9.30
2023-04-07T19:15:53.069Z,8.75
2023-04-07T19:20:55.275Z,8.93
2023-04-07T19:25:56.918Z,9.00
2023-04-07T19:30:58.664Z,9.10
2023-04-07T19:36:00.807Z,9.48
2023-04-07T19:41:03.217Z,9.40
2023-04-07T19:46:06.286Z,9.90
2023-04-07T19:51:08.062Z,9.20
2023-04-07T19:56:11.030Z,8.88
2023-04-07T20:01:19.324Z,8.50
2023-04-07T20:06:24.671Z,8.73
2023-04-07T20:11:26.398Z,8.85
2023-04-07T20:16:31.570Z,9.15
2023-04-07T20:21:33.176Z,8.38
2023-04-07T20:26:34.838Z,8.25
2023-04-07T20:31:36.576Z,7.93
2023-04-07T20:36:38.240Z,8.23
2023-04-07T20:41:42.761Z,8.55
2023-04-07T20:46:46.268Z,7.75
2023-04-07T20:51:48.139Z,8.63
2023-04-07T20:56:50.149Z,8.23
2023-04-07T21:01:52.145Z,6.90
2023-04-07T21:06:53.910Z,7.53
2023-04-07T21:11:55.654Z,7.38
2023-04-07T21:16:57.336Z,6.75
2023-04-07T21:22:00.466Z,7.10
2023-04-07T21:27:02.211Z,7.18
2023-04-07T21:32:04.068Z,7.67
2023-04-07T21:37:06.022Z,7.27
2023-04-07T21:42:07.624Z,6.88
2023-04-07T21:47:09.405Z,6.88
2023-04-07T21:52:10.995Z,6.18
2023-04-07T21:57:13.535Z,6.03
2023-04-07T22:02:15.340Z,6.30
2023-04-07T22:07:17.040Z,6.70
2023-04-07T22:12:18.695Z,6.85
2023-04-07T22:17:20.304Z,6.10
2023-04-07T22:22:21.928Z,6.88
2023-04-07T22:27:23.506Z,7.78
2023-04-07T22:32:25.351Z,6.68
2023-04-07T22:37:27.216Z,6.78
2023-04-07T22:42:28.818Z,7.63
2023-04-07T22:47:30.512Z,7.80
2023-04-07T22:52:32.115Z,7.00
2023-04-07T22:57:33.734Z,7.35
2023-04-07T23:02:35.571Z,6.78
2023-04-07T23:07:37.633Z,7.65
2023-04-07T23:12:39.280Z,7.10
2023-04-07T23:17:41.168Z,7.63
2023-04-07T23:22:42.823Z,8.38
2023-04-07T23:27:44.566Z,8.32
2023-04-07T23:32:46.314Z,8.68
2023-04-07T23:37:49.338Z,9.18
2023-04-07T23:42:51.430Z,8.18
2023-04-07T23:47:53.106Z,8.40
2023-04-07T23:52:55.514Z,8.87
2023-04-07T23:57:57.378Z,8.63
